sensor_id;sensor_type;location;lat;lon;timestamp;P1;durP1;ratioP1;P2;durP2;ratioP2
11018;SDS011;5563;52.296;6.806;2023-05-15T00:00:07;29.60;;;25.80;;
11018;SDS011;5563;52.296;6.806;2023-05-15T00:02:47;26.73;;;23.83;;
11018;SDS011;5563;52.296;6.806;2023-05-15T00:05:27;33.90;;;26.20;;
11018;SDS011;5563;52.296;6.806;2023-05-15T00:07:55;30.05;;;25.98;;
11018;SDS011;5563;52.296;6.806;2023-05-15T00:10:28;32.72;;;26.75;;
11018;SDS011;5563;52.296;6.806;2023-05-15T00:12:59;31.30;;;27.02;;
11018;SDS011;5563;52.296;6.806;2023-05-15T00:15:34;32.35;;;27.15;;
11018;SDS011;5563;52.296;6.806;2023-05-15T00:18:01;30.75;;;25.85;;
11018;SDS011;5563;52.296;6.806;2023-05-15T00:20:36;29.02;;;24.60;;
11018;SDS011;5563;52.296;6.806;2023-05-15T00:23:13;34.40;;;26.33;;
11018;SDS011;5563;52.296;6.806;2023-05-15T00:25:47;33.95;;;26.75;;
11018;SDS011;5563;52.296;6.806;2023-05-15T00:28:25;34.13;;;28.13;;
11018;SDS011;5563;52.296;6.806;2023-05-15T00:30:54;33.80;;;27.15;;
11018;SDS011;5563;52.296;6.806;2023-05-15T00:33:28;36.90;;;28.00;;
11018;SDS011;5563;52.296;6.806;2023-05-15T00:35:56;33.08;;;27.15;;
11018;SDS011;5563;52.296;6.806;2023-05-15T00:38:30;34.78;;;28.73;;
11018;SDS011;5563;52.296;6.806;2023-05-15T00:41:01;34.78;;;28.52;;
11018;SDS011;5563;52.296;6.806;2023-05-15T00:43:39;34.70;;;27.10;;
11018;SDS011;5563;52.296;6.806;2023-05-15T00:46:14;32.80;;;26.10;;
11018;SDS011;5563;52.296;6.806;2023-05-15T00:48:51;36.80;;;28.83;;
11018;SDS011;5563;52.296;6.806;2023-05-15T00:51:21;35.85;;;29.13;;
11018;SDS011;5563;52.296;6.806;2023-05-15T00:53:55;35.80;;;29.27;;
11018;SDS011;5563;52.296;6.806;2023-05-15T00:56:24;35.05;;;27.10;;
11018;SDS011;5563;52.296;6.806;2023-05-15T00:59:03;37.03;;;29.17;;
11018;SDS011;5563;52.296;6.806;2023-05-15T01:01:34;35.03;;;29.17;;
11018;SDS011;5563;52.296;6.806;2023-05-15T01:04:07;35.50;;;27.65;;
11018;SDS011;5563;52.296;6.806;2023-05-15T01:06:52;33.97;;;27.40;;
11018;SDS011;5563;52.296;6.806;2023-05-15T01:09:20;37.10;;;28.95;;
11018;SDS011;5563;52.296;6.806;2023-05-15T01:11:56;35.70;;;27.65;;
11018;SDS011;5563;52.296;6.806;2023-05-15T01:14:26;37.63;;;29.50;;
11018;SDS011;5563;52.296;6.806;2023-05-15T01:16:59;33.20;;;26.45;;
11018;SDS011;5563;52.296;6.806;2023-05-15T01:19:33;36.40;;;29.15;;
11018;SDS011;5563;52.296;6.806;2023-05-15T01:22:18;32.80;;;25.77;;
11018;SDS011;5563;52.296;6.806;2023-05-15T01:25:22;34.88;;;28.23;;
11018;SDS011;5563;52.296;6.806;2023-05-15T01:28:07;35.90;;;28.55;;
11018;SDS011;5563;52.296;6.806;2023-05-15T01:30:38;37.22;;;28.65;;
11018;SDS011;5563;52.296;6.806;2023-05-15T01:36:04;37.33;;;29.05;;
11018;SDS011;5563;52.296;6.806;2023-05-15T01:38:55;36.42;;;27.98;;
11018;SDS011;5563;52.296;6.806;2023-05-15T01:41:27;36.00;;;27.38;;
11018;SDS011;5563;52.296;6.806;2023-05-15T01:44:14;34.78;;;27.52;;
11018;SDS011;5563;52.296;6.806;2023-05-15T01:46:56;35.30;;;28.67;;
11018;SDS011;5563;52.296;6.806;2023-05-15T01:49:37;33.13;;;27.13;;
11018;SDS011;5563;52.296;6.806;2023-05-15T01:52:22;34.50;;;27.08;;
11018;SDS011;5563;52.296;6.806;2023-05-15T01:55:05;36.85;;;28.02;;
11018;SDS011;5563;52.296;6.806;2023-05-15T01:57:35;39.53;;;27.88;;
11018;SDS011;5563;52.296;6.806;2023-05-15T02:00:12;37.92;;;29.27;;
11018;SDS011;5563;52.296;6.806;2023-05-15T02:02:41;36.13;;;27.65;;
11018;SDS011;5563;52.296;6.806;2023-05-15T02:05:19;34.90;;;26.83;;
11018;SDS011;5563;52.296;6.806;2023-05-15T02:07:50;36.58;;;27.42;;
11018;SDS011;5563;52.296;6.806;2023-05-15T02:10:25;34.63;;;27.15;;
11018;SDS011;5563;52.296;6.806;2023-05-15T02:12:53;34.70;;;28.08;;
11018;SDS011;5563;52.296;6.806;2023-05-15T02:15:30;38.75;;;29.35;;
11018;SDS011;5563;52.296;6.806;2023-05-15T02:18:01;36.17;;;28.10;;
11018;SDS011;5563;52.296;6.806;2023-05-15T02:20:35;35.70;;;28.17;;
11018;SDS011;5563;52.296;6.806;2023-05-15T02:23:03;39.13;;;29.48;;
11018;SDS011;5563;52.296;6.806;2023-05-15T02:28:53;36.40;;;28.05;;
11018;SDS011;5563;52.296;6.806;2023-05-15T02:34:51;40.33;;;28.58;;
11018;SDS011;5563;52.296;6.806;2023-05-15T02:37:40;39.67;;;28.20;;
11018;SDS011;5563;52.296;6.806;2023-05-15T02:40:12;36.22;;;27.45;;
11018;SDS011;5563;52.296;6.806;2023-05-15T02:42:54;39.55;;;29.13;;
11018;SDS011;5563;52.296;6.806;2023-05-15T02:45:25;36.70;;;28.00;;
11018;SDS011;5563;52.296;6.806;2023-05-15T02:48:00;39.10;;;28.45;;
11018;SDS011;5563;52.296;6.806;2023-05-15T02:50:36;39.95;;;28.42;;
11018;SDS011;5563;52.296;6.806;2023-05-15T02:53:03;38.72;;;29.33;;
11018;SDS011;5563;52.296;6.806;2023-05-15T02:55:37;41.33;;;29.23;;
11018;SDS011;5563;52.296;6.806;2023-05-15T02:58:05;37.80;;;29.02;;
11018;SDS011;5563;52.296;6.806;2023-05-15T03:00:39;42.03;;;30.20;;
11018;SDS011;5563;52.296;6.806;2023-05-15T03:03:07;40.50;;;28.55;;
11018;SDS011;5563;52.296;6.806;2023-05-15T03:05:43;43.35;;;30.40;;
11018;SDS011;5563;52.296;6.806;2023-05-15T03:08:11;42.05;;;29.92;;
11018;SDS011;5563;52.296;6.806;2023-05-15T03:10:45;45.22;;;31.40;;
11018;SDS011;5563;52.296;6.806;2023-05-15T03:13:15;41.03;;;30.42;;
11018;SDS011;5563;52.296;6.806;2023-05-15T03:15:48;40.17;;;30.27;;
11018;SDS011;5563;52.296;6.806;2023-05-15T03:18:22;43.13;;;31.02;;
11018;SDS011;5563;52.296;6.806;2023-05-15T03:20:58;41.70;;;30.33;;
11018;SDS011;5563;52.296;6.806;2023-05-15T03:23:25;34.38;;;26.20;;
11018;SDS011;5563;52.296;6.806;2023-05-15T03:26:06;40.58;;;29.30;;
11018;SDS011;5563;52.296;6.806;2023-05-15T03:28:34;40.80;;;30.23;;
11018;SDS011;5563;52.296;6.806;2023-05-15T03:31:07;40.67;;;28.98;;
11018;SDS011;5563;52.296;6.806;2023-05-15T03:33:42;38.25;;;29.10;;
11018;SDS011;5563;52.296;6.806;2023-05-15T03:36:17;38.83;;;28.50;;
11018;SDS011;5563;52.296;6.806;2023-05-15T03:38:52;39.28;;;30.02;;
11018;SDS011;5563;52.296;6.806;2023-05-15T03:41:19;40.78;;;28.50;;
11018;SDS011;5563;52.296;6.806;2023-05-15T03:43:55;34.65;;;27.30;;
11018;SDS011;5563;52.296;6.806;2023-05-15T03:46:23;37.38;;;27.08;;
11018;SDS011;5563;52.296;6.806;2023-05-15T03:48:56;35.70;;;27.48;;
11018;SDS011;5563;52.296;6.806;2023-05-15T03:51:24;35.70;;;27.70;;
11018;SDS011;5563;52.296;6.806;2023-05-15T03:54:04;40.60;;;29.23;;
11018;SDS011;5563;52.296;6.806;2023-05-15T03:56:32;35.50;;;27.33;;
11018;SDS011;5563;52.296;6.806;2023-05-15T03:59:06;38.33;;;29.30;;
11018;SDS011;5563;52.296;6.806;2023-05-15T04:01:38;33.10;;;25.75;;
11018;SDS011;5563;52.296;6.806;2023-05-15T04:04:29;32.30;;;25.08;;
11018;SDS011;5563;52.296;6.806;2023-05-15T04:06:57;35.90;;;26.90;;
11018;SDS011;5563;52.296;6.806;2023-05-15T04:09:30;34.22;;;27.63;;
11018;SDS011;5563;52.296;6.806;2023-05-15T04:12:04;34.83;;;26.05;;
11018;SDS011;5563;52.296;6.806;2023-05-15T04:14:32;32.97;;;26.00;;
11018;SDS011;5563;52.296;6.806;2023-05-15T04:17:10;32.80;;;25.67;;
11018;SDS011;5563;52.296;6.806;2023-05-15T04:19:37;30.75;;;24.27;;
11018;SDS011;5563;52.296;6.806;2023-05-15T04:22:22;31.77;;;25.00;;
11018;SDS011;5563;52.296;6.806;2023-05-15T04:25:02;32.92;;;25.60;;
11018;SDS011;5563;52.296;6.806;2023-05-15T04:27:37;34.05;;;26.15;;
11018;SDS011;5563;52.296;6.806;2023-05-15T04:30:07;31.42;;;25.85;;
11018;SDS011;5563;52.296;6.806;2023-05-15T04:32:42;32.38;;;25.48;;
11018;SDS011;5563;52.296;6.806;2023-05-15T04:35:12;31.25;;;24.55;;
11018;SDS011;5563;52.296;6.806;2023-05-15T04:37:51;34.35;;;26.40;;
11018;SDS011;5563;52.296;6.806;2023-05-15T04:40:28;32.55;;;25.85;;
11018;SDS011;5563;52.296;6.806;2023-05-15T04:43:06;35.95;;;26.65;;
11018;SDS011;5563;52.296;6.806;2023-05-15T04:45:34;36.38;;;25.92;;
11018;SDS011;5563;52.296;6.806;2023-05-15T04:48:07;32.45;;;26.30;;
11018;SDS011;5563;52.296;6.806;2023-05-15T04:50:38;29.75;;;25.08;;
11018;SDS011;5563;52.296;6.806;2023-05-15T04:53:13;30.58;;;24.02;;
11018;SDS011;5563;52.296;6.806;2023-05-15T04:55:40;31.95;;;25.40;;
11018;SDS011;5563;52.296;6.806;2023-05-15T04:58:14;34.38;;;25.98;;
11018;SDS011;5563;52.296;6.806;2023-05-15T05:00:42;35.70;;;25.08;;
11018;SDS011;5563;52.296;6.806;2023-05-15T05:03:28;35.25;;;26.58;;
11018;SDS011;5563;52.296;6.806;2023-05-15T05:06:03;36.42;;;26.63;;
11018;SDS011;5563;52.296;6.806;2023-05-15T05:08:35;33.00;;;25.77;;
11018;SDS011;5563;52.296;6.806;2023-05-15T05:11:09;34.65;;;26.48;;
11018;SDS011;5563;52.296;6.806;2023-05-15T05:13:37;35.10;;;27.27;;
11018;SDS011;5563;52.296;6.806;2023-05-15T05:16:11;33.85;;;25.63;;
11018;SDS011;5563;52.296;6.806;2023-05-15T05:18:38;33.53;;;25.10;;
11018;SDS011;5563;52.296;6.806;2023-05-15T05:21:12;36.33;;;27.23;;
11018;SDS011;5563;52.296;6.806;2023-05-15T05:23:52;34.80;;;26.52;;
11018;SDS011;5563;52.296;6.806;2023-05-15T05:26:25;33.45;;;25.58;;
11018;SDS011;5563;52.296;6.806;2023-05-15T05:28:53;30.95;;;24.77;;
11018;SDS011;5563;52.296;6.806;2023-05-15T05:31:33;34.60;;;25.98;;
11018;SDS011;5563;52.296;6.806;2023-05-15T05:34:03;29.88;;;23.95;;
11018;SDS011;5563;52.296;6.806;2023-05-15T05:36:39;29.90;;;23.02;;
11018;SDS011;5563;52.296;6.806;2023-05-15T05:39:13;27.45;;;22.35;;
11018;SDS011;5563;52.296;6.806;2023-05-15T05:41:53;26.10;;;21.98;;
11018;SDS011;5563;52.296;6.806;2023-05-15T05:44:22;29.83;;;24.75;;
11018;SDS011;5563;52.296;6.806;2023-05-15T05:47:01;33.90;;;25.33;;
11018;SDS011;5563;52.296;6.806;2023-05-15T05:49:36;32.35;;;24.80;;
11018;SDS011;5563;52.296;6.806;2023-05-15T05:52:10;33.08;;;25.65;;
11018;SDS011;5563;52.296;6.806;2023-05-15T05:54:37;30.02;;;24.08;;
11018;SDS011;5563;52.296;6.806;2023-05-15T05:57:04;33.50;;;25.85;;
11018;SDS011;5563;52.296;6.806;2023-05-15T05:59:39;34.70;;;26.75;;
11018;SDS011;5563;52.296;6.806;2023-05-15T06:02:14;32.35;;;24.83;;
11018;SDS011;5563;52.296;6.806;2023-05-15T06:04:48;34.42;;;27.05;;
11018;SDS011;5563;52.296;6.806;2023-05-15T06:07:20;35.92;;;27.95;;
11018;SDS011;5563;52.296;6.806;2023-05-15T06:09:58;34.47;;;27.67;;
11018;SDS011;5563;52.296;6.806;2023-05-15T06:12:28;35.60;;;26.70;;
11018;SDS011;5563;52.296;6.806;2023-05-15T06:15:02;34.30;;;26.42;;
11018;SDS011;5563;52.296;6.806;2023-05-15T06:17:29;32.90;;;25.55;;
11018;SDS011;5563;52.296;6.806;2023-05-15T06:20:05;31.65;;;25.67;;
11018;SDS011;5563;52.296;6.806;2023-05-15T06:22:37;32.90;;;25.20;;
11018;SDS011;5563;52.296;6.806;2023-05-15T06:25:14;31.65;;;24.00;;
11018;SDS011;5563;52.296;6.806;2023-05-15T06:27:48;30.90;;;25.00;;
11018;SDS011;5563;52.296;6.806;2023-05-15T06:30:22;31.42;;;24.65;;
11018;SDS011;5563;52.296;6.806;2023-05-15T06:32:56;35.47;;;26.50;;
11018;SDS011;5563;52.296;6.806;2023-05-15T06:35:23;33.90;;;25.85;;
11018;SDS011;5563;52.296;6.806;2023-05-15T06:37:56;35.30;;;27.10;;
11018;SDS011;5563;52.296;6.806;2023-05-15T06:40:27;37.25;;;26.73;;
11018;SDS011;5563;52.296;6.806;2023-05-15T06:43:00;38.25;;;27.75;;
11018;SDS011;5563;52.296;6.806;2023-05-15T06:45:34;33.42;;;25.65;;
11018;SDS011;5563;52.296;6.806;2023-05-15T06:48:10;37.53;;;27.65;;
11018;SDS011;5563;52.296;6.806;2023-05-15T06:50:38;35.13;;;27.63;;
11018;SDS011;5563;52.296;6.806;2023-05-15T06:53:15;36.60;;;27.67;;
11018;SDS011;5563;52.296;6.806;2023-05-15T06:55:44;40.72;;;30.92;;
11018;SDS011;5563;52.296;6.806;2023-05-15T06:58:21;40.72;;;29.00;;
11018;SDS011;5563;52.296;6.806;2023-05-15T07:00:52;39.63;;;27.83;;
11018;SDS011;5563;52.296;6.806;2023-05-15T07:03:32;39.53;;;29.75;;
11018;SDS011;5563;52.296;6.806;2023-05-15T07:05:59;39.70;;;30.17;;
11018;SDS011;5563;52.296;6.806;2023-05-15T07:08:37;39.42;;;28.20;;
11018;SDS011;5563;52.296;6.806;2023-05-15T07:11:11;37.83;;;27.40;;
11018;SDS011;5563;52.296;6.806;2023-05-15T07:13:41;39.53;;;29.92;;
11018;SDS011;5563;52.296;6.806;2023-05-15T07:16:16;41.92;;;31.05;;
11018;SDS011;5563;52.296;6.806;2023-05-15T07:18:43;42.72;;;30.30;;
11018;SDS011;5563;52.296;6.806;2023-05-15T07:21:18;37.80;;;28.98;;
11018;SDS011;5563;52.296;6.806;2023-05-15T07:23:48;38.20;;;28.63;;
11018;SDS011;5563;52.296;6.806;2023-05-15T07:26:22;37.90;;;30.27;;
11018;SDS011;5563;52.296;6.806;2023-05-15T07:29:09;35.80;;;27.55;;
11018;SDS011;5563;52.296;6.806;2023-05-15T07:31:43;37.35;;;28.85;;
11018;SDS011;5563;52.296;6.806;2023-05-15T07:34:10;35.85;;;27.13;;
11018;SDS011;5563;52.296;6.806;2023-05-15T07:36:37;34.53;;;26.17;;
11018;SDS011;5563;52.296;6.806;2023-05-15T07:39:14;33.83;;;26.80;;
11018;SDS011;5563;52.296;6.806;2023-05-15T07:41:53;30.75;;;25.48;;
11018;SDS011;5563;52.296;6.806;2023-05-15T07:44:27;28.10;;;24.15;;
11018;SDS011;5563;52.296;6.806;2023-05-15T07:46:58;29.65;;;25.15;;
11018;SDS011;5563;52.296;6.806;2023-05-15T07:49:42;28.58;;;23.35;;
11018;SDS011;5563;52.296;6.806;2023-05-15T07:52:18;30.00;;;25.42;;
11018;SDS011;5563;52.296;6.806;2023-05-15T07:54:52;30.25;;;23.70;;
11018;SDS011;5563;52.296;6.806;2023-05-15T07:57:23;27.08;;;23.02;;
11018;SDS011;5563;52.296;6.806;2023-05-15T07:59:58;29.27;;;24.20;;
11018;SDS011;5563;52.296;6.806;2023-05-15T08:02:34;27.80;;;22.73;;
11018;SDS011;5563;52.296;6.806;2023-05-15T08:05:02;23.65;;;21.02;;
11018;SDS011;5563;52.296;6.806;2023-05-15T08:07:39;23.63;;;21.02;;
11018;SDS011;5563;52.296;6.806;2023-05-15T08:10:17;22.38;;;20.02;;
11018;SDS011;5563;52.296;6.806;2023-05-15T08:12:53;23.27;;;20.45;;
11018;SDS011;5563;52.296;6.806;2023-05-15T08:15:21;22.80;;;20.25;;
11018;SDS011;5563;52.296;6.806;2023-05-15T08:17:56;24.48;;;20.27;;
11018;SDS011;5563;52.296;6.806;2023-05-15T08:20:30;21.92;;;19.63;;
11018;SDS011;5563;52.296;6.806;2023-05-15T08:23:00;20.83;;;18.63;;
11018;SDS011;5563;52.296;6.806;2023-05-15T08:25:49;22.98;;;19.55;;
11018;SDS011;5563;52.296;6.806;2023-05-15T08:28:18;20.77;;;18.60;;
11018;SDS011;5563;52.296;6.806;2023-05-15T08:30:52;21.65;;;19.45;;
11018;SDS011;5563;52.296;6.806;2023-05-15T08:33:22;22.02;;;19.52;;
11018;SDS011;5563;52.296;6.806;2023-05-15T08:35:57;21.30;;;19.08;;
11018;SDS011;5563;52.296;6.806;2023-05-15T08:38:25;21.63;;;19.20;;
11018;SDS011;5563;52.296;6.806;2023-05-15T08:41:06;21.25;;;19.05;;
11018;SDS011;5563;52.296;6.806;2023-05-15T08:43:38;22.88;;;18.75;;
11018;SDS011;5563;52.296;6.806;2023-05-15T08:46:16;19.90;;;17.88;;
11018;SDS011;5563;52.296;6.806;2023-05-15T08:48:46;19.63;;;17.67;;
11018;SDS011;5563;52.296;6.806;2023-05-15T08:51:21;19.80;;;17.70;;
11018;SDS011;5563;52.296;6.806;2023-05-15T08:53:54;18.08;;;16.15;;
11018;SDS011;5563;52.296;6.806;2023-05-15T08:56:27;18.83;;;17.02;;
11018;SDS011;5563;52.296;6.806;2023-05-15T08:59:06;20.42;;;17.00;;
11018;SDS011;5563;52.296;6.806;2023-05-15T09:01:41;18.25;;;16.35;;
11018;SDS011;5563;52.296;6.806;2023-05-15T09:04:15;17.67;;;15.77;;
11018;SDS011;5563;52.296;6.806;2023-05-15T09:06:44;19.02;;;15.95;;
11018;SDS011;5563;52.296;6.806;2023-05-15T09:09:19;16.88;;;15.27;;
11018;SDS011;5563;52.296;6.806;2023-05-15T09:11:50;15.73;;;14.13;;
11018;SDS011;5563;52.296;6.806;2023-05-15T09:14:26;15.75;;;14.15;;
11018;SDS011;5563;52.296;6.806;2023-05-15T09:16:58;16.17;;;14.57;;
11018;SDS011;5563;52.296;6.806;2023-05-15T09:19:33;15.30;;;13.73;;
11018;SDS011;5563;52.296;6.806;2023-05-15T09:22:21;16.23;;;14.60;;
11018;SDS011;5563;52.296;6.806;2023-05-15T09:24:55;14.95;;;13.55;;
11018;SDS011;5563;52.296;6.806;2023-05-15T09:27:29;15.88;;;14.38;;
11018;SDS011;5563;52.296;6.806;2023-05-15T09:30:13;17.20;;;14.75;;
11018;SDS011;5563;52.296;6.806;2023-05-15T09:32:51;15.23;;;13.63;;
11018;SDS011;5563;52.296;6.806;2023-05-15T09:35:29;16.05;;;14.40;;
11018;SDS011;5563;52.296;6.806;2023-05-15T09:38:08;16.23;;;14.52;;
11018;SDS011;5563;52.296;6.806;2023-05-15T09:40:37;15.10;;;13.70;;
11018;SDS011;5563;52.296;6.806;2023-05-15T09:43:13;14.82;;;13.43;;
11018;SDS011;5563;52.296;6.806;2023-05-15T09:45:46;14.63;;;13.13;;
11018;SDS011;5563;52.296;6.806;2023-05-15T09:48:13;13.18;;;11.93;;
11018;SDS011;5563;52.296;6.806;2023-05-15T09:50:47;12.90;;;11.68;;
11018;SDS011;5563;52.296;6.806;2023-05-15T09:53:21;13.35;;;12.07;;
11018;SDS011;5563;52.296;6.806;2023-05-15T09:55:48;13.60;;;11.45;;
11018;SDS011;5563;52.296;6.806;2023-05-15T09:58:22;12.20;;;11.10;;
11018;SDS011;5563;52.296;6.806;2023-05-15T10:00:56;12.82;;;11.63;;
11018;SDS011;5563;52.296;6.806;2023-05-15T10:03:24;12.80;;;11.30;;
11018;SDS011;5563;52.296;6.806;2023-05-15T10:05:58;13.35;;;12.05;;
11018;SDS011;5563;52.296;6.806;2023-05-15T10:08:26;12.13;;;11.02;;
11018;SDS011;5563;52.296;6.806;2023-05-15T10:11:03;11.27;;;10.20;;
11018;SDS011;5563;52.296;6.806;2023-05-15T10:13:31;11.70;;;10.52;;
11018;SDS011;5563;52.296;6.806;2023-05-15T10:16:07;12.48;;;11.38;;
11018;SDS011;5563;52.296;6.806;2023-05-15T10:18:33;12.35;;;11.25;;
11018;SDS011;5563;52.296;6.806;2023-05-15T10:21:10;12.27;;;10.93;;
11018;SDS011;5563;52.296;6.806;2023-05-15T10:23:44;12.65;;;11.35;;
11018;SDS011;5563;52.296;6.806;2023-05-15T10:26:28;12.57;;;11.48;;
11018;SDS011;5563;52.296;6.806;2023-05-15T10:29:04;11.77;;;10.75;;
11018;SDS011;5563;52.296;6.806;2023-05-15T10:31:42;12.40;;;11.35;;
11018;SDS011;5563;52.296;6.806;2023-05-15T10:34:09;11.30;;;10.30;;
11018;SDS011;5563;52.296;6.806;2023-05-15T10:36:44;10.20;;;9.30;;
11018;SDS011;5563;52.296;6.806;2023-05-15T10:39:17;10.80;;;9.75;;
11018;SDS011;5563;52.296;6.806;2023-05-15T10:41:46;10.73;;;9.82;;
11018;SDS011;5563;52.296;6.806;2023-05-15T10:44:22;10.43;;;9.32;;
11018;SDS011;5563;52.296;6.806;2023-05-15T10:46:55;11.63;;;10.57;;
11018;SDS011;5563;52.296;6.806;2023-05-15T10:49:23;10.27;;;9.40;;
11018;SDS011;5563;52.296;6.806;2023-05-15T10:51:58;10.50;;;9.50;;
11018;SDS011;5563;52.296;6.806;2023-05-15T10:54:26;9.88;;;8.85;;
11018;SDS011;5563;52.296;6.806;2023-05-15T10:57:01;10.25;;;9.20;;
11018;SDS011;5563;52.296;6.806;2023-05-15T10:59:35;8.80;;;7.82;;
11018;SDS011;5563;52.296;6.806;2023-05-15T11:04:52;8.38;;;7.60;;
11018;SDS011;5563;52.296;6.806;2023-05-15T11:07:36;8.55;;;7.00;;
11018;SDS011;5563;52.296;6.806;2023-05-15T11:10:20;9.73;;;7.25;;
11018;SDS011;5563;52.296;6.806;2023-05-15T11:13:01;8.88;;;7.97;;
11018;SDS011;5563;52.296;6.806;2023-05-15T11:15:45;8.50;;;7.22;;
11018;SDS011;5563;52.296;6.806;2023-05-15T11:18:13;8.50;;;7.63;;
11018;SDS011;5563;52.296;6.806;2023-05-15T11:23:20;9.10;;;8.30;;
11018;SDS011;5563;52.296;6.806;2023-05-15T11:25:55;8.52;;;7.05;;
11018;SDS011;5563;52.296;6.806;2023-05-15T11:28:23;9.02;;;8.23;;
11018;SDS011;5563;52.296;6.806;2023-05-15T11:30:58;10.02;;;8.75;;
11018;SDS011;5563;52.296;6.806;2023-05-15T11:33:28;9.65;;;8.75;;
11018;SDS011;5563;52.296;6.806;2023-05-15T11:36:03;10.55;;;9.45;;
11018;SDS011;5563;52.296;6.806;2023-05-15T11:38:35;9.88;;;9.07;;
11018;SDS011;5563;52.296;6.806;2023-05-15T11:41:17;10.85;;;9.75;;
11018;SDS011;5563;52.296;6.806;2023-05-15T11:43:52;10.70;;;9.60;;
11018;SDS011;5563;52.296;6.806;2023-05-15T11:46:24;9.65;;;8.65;;
11018;SDS011;5563;52.296;6.806;2023-05-15T11:48:59;8.30;;;7.45;;
11018;SDS011;5563;52.296;6.806;2023-05-15T11:51:33;8.43;;;7.72;;
11018;SDS011;5563;52.296;6.806;2023-05-15T11:54:08;8.20;;;7.32;;
11018;SDS011;5563;52.296;6.806;2023-05-15T11:56:45;10.18;;;8.63;;
11018;SDS011;5563;52.296;6.806;2023-05-15T11:59:12;9.57;;;8.50;;
11018;SDS011;5563;52.296;6.806;2023-05-15T12:01:43;10.30;;;9.35;;
11018;SDS011;5563;52.296;6.806;2023-05-15T12:04:20;14.40;;;11.73;;
11018;SDS011;5563;52.296;6.806;2023-05-15T12:06:53;11.07;;;10.18;;
11018;SDS011;5563;52.296;6.806;2023-05-15T12:09:20;12.73;;;11.48;;
11018;SDS011;5563;52.296;6.806;2023-05-15T12:11:59;13.20;;;12.00;;
11018;SDS011;5563;52.296;6.806;2023-05-15T12:14:26;12.52;;;11.25;;
11018;SDS011;5563;52.296;6.806;2023-05-15T12:17:01;13.20;;;11.93;;
11018;SDS011;5563;52.296;6.806;2023-05-15T12:19:29;11.65;;;10.55;;
11018;SDS011;5563;52.296;6.806;2023-05-15T12:21:57;13.65;;;11.93;;
11018;SDS011;5563;52.296;6.806;2023-05-15T12:24:31;13.00;;;11.80;;
11018;SDS011;5563;52.296;6.806;2023-05-15T12:27:05;13.35;;;12.02;;
11018;SDS011;5563;52.296;6.806;2023-05-15T12:29:40;12.80;;;11.60;;
11018;SDS011;5563;52.296;6.806;2023-05-15T12:32:07;13.20;;;11.40;;
11018;SDS011;5563;52.296;6.806;2023-05-15T12:34:42;11.35;;;10.35;;
11018;SDS011;5563;52.296;6.806;2023-05-15T12:37:12;11.65;;;10.57;;
11018;SDS011;5563;52.296;6.806;2023-05-15T12:39:50;10.02;;;9.13;;
11018;SDS011;5563;52.296;6.806;2023-05-15T12:42:23;10.98;;;10.00;;
11018;SDS011;5563;52.296;6.806;2023-05-15T12:44:52;12.32;;;11.13;;
11018;SDS011;5563;52.296;6.806;2023-05-15T12:47:26;11.18;;;10.25;;
11018;SDS011;5563;52.296;6.806;2023-05-15T12:50:00;10.95;;;9.95;;
11018;SDS011;5563;52.296;6.806;2023-05-15T12:52:27;9.73;;;8.82;;
11018;SDS011;5563;52.296;6.806;2023-05-15T12:55:01;8.65;;;7.85;;
11018;SDS011;5563;52.296;6.806;2023-05-15T12:57:34;6.97;;;6.28;;
11018;SDS011;5563;52.296;6.806;2023-05-15T13:00:02;6.28;;;5.78;;
11018;SDS011;5563;52.296;6.806;2023-05-15T13:02:36;7.57;;;6.88;;
11018;SDS011;5563;52.296;6.806;2023-05-15T13:05:03;7.88;;;6.63;;
11018;SDS011;5563;52.296;6.806;2023-05-15T13:07:39;7.00;;;6.40;;
11018;SDS011;5563;52.296;6.806;2023-05-15T13:10:07;6.25;;;5.53;;
11018;SDS011;5563;52.296;6.806;2023-05-15T13:12:43;4.82;;;3.95;;
11018;SDS011;5563;52.296;6.806;2023-05-15T13:15:23;4.97;;;4.57;;
11018;SDS011;5563;52.296;6.806;2023-05-15T13:18:00;3.55;;;3.25;;
11018;SDS011;5563;52.296;6.806;2023-05-15T13:20:29;4.43;;;3.83;;
11018;SDS011;5563;52.296;6.806;2023-05-15T13:23:12;4.07;;;3.78;;
11018;SDS011;5563;52.296;6.806;2023-05-15T13:25:57;4.78;;;4.38;;
11018;SDS011;5563;52.296;6.806;2023-05-15T13:28:30;4.75;;;3.67;;
11018;SDS011;5563;52.296;6.806;2023-05-15T13:30:57;3.75;;;3.45;;
11018;SDS011;5563;52.296;6.806;2023-05-15T13:33:31;4.72;;;4.25;;
11018;SDS011;5563;52.296;6.806;2023-05-15T13:36:06;5.03;;;4.10;;
11018;SDS011;5563;52.296;6.806;2023-05-15T13:38:39;4.03;;;3.58;;
11018;SDS011;5563;52.296;6.806;2023-05-15T13:41:05;5.20;;;4.70;;
11018;SDS011;5563;52.296;6.806;2023-05-15T13:43:33;4.07;;;3.78;;
11018;SDS011;5563;52.296;6.806;2023-05-15T13:46:06;4.28;;;3.88;;
11018;SDS011;5563;52.296;6.806;2023-05-15T13:48:33;4.38;;;3.70;;
11018;SDS011;5563;52.296;6.806;2023-05-15T13:51:07;4.35;;;3.95;;
11018;SDS011;5563;52.296;6.806;2023-05-15T13:53:41;4.55;;;4.15;;
11018;SDS011;5563;52.296;6.806;2023-05-15T13:56:14;4.50;;;4.07;;
11018;SDS011;5563;52.296;6.806;2023-05-15T13:58:41;3.88;;;3.50;;
11018;SDS011;5563;52.296;6.806;2023-05-15T14:01:15;3.58;;;3.08;;
11018;SDS011;5563;52.296;6.806;2023-05-15T14:03:42;4.53;;;4.13;;
11018;SDS011;5563;52.296;6.806;2023-05-15T14:06:09;4.10;;;3.80;;
11018;SDS011;5563;52.296;6.806;2023-05-15T14:08:42;5.30;;;4.40;;
11018;SDS011;5563;52.296;6.806;2023-05-15T14:11:09;4.95;;;4.57;;
11018;SDS011;5563;52.296;6.806;2023-05-15T14:13:42;5.55;;;4.75;;
11018;SDS011;5563;52.296;6.806;2023-05-15T14:16:09;5.47;;;4.90;;
11018;SDS011;5563;52.296;6.806;2023-05-15T14:18:42;5.10;;;4.68;;
11018;SDS011;5563;52.296;6.806;2023-05-15T14:21:15;4.72;;;4.32;;
11018;SDS011;5563;52.296;6.806;2023-05-15T14:23:42;4.90;;;4.50;;
11018;SDS011;5563;52.296;6.806;2023-05-15T14:26:15;5.25;;;4.40;;
11018;SDS011;5563;52.296;6.806;2023-05-15T14:28:48;4.50;;;4.10;;
11018;SDS011;5563;52.296;6.806;2023-05-15T14:31:15;6.88;;;5.00;;
11018;SDS011;5563;52.296;6.806;2023-05-15T14:33:48;5.00;;;4.53;;
11018;SDS011;5563;52.296;6.806;2023-05-15T14:36:22;5.80;;;5.25;;
11018;SDS011;5563;52.296;6.806;2023-05-15T14:38:49;6.30;;;5.50;;
11018;SDS011;5563;52.296;6.806;2023-05-15T14:41:25;5.55;;;5.05;;
11018;SDS011;5563;52.296;6.806;2023-05-15T14:43:53;6.45;;;5.28;;
11018;SDS011;5563;52.296;6.806;2023-05-15T14:46:27;9.35;;;6.50;;
11018;SDS011;5563;52.296;6.806;2023-05-15T14:48:54;8.88;;;8.05;;
11018;SDS011;5563;52.296;6.806;2023-05-15T14:51:28;9.13;;;8.15;;
11018;SDS011;5563;52.296;6.806;2023-05-15T14:53:55;8.90;;;7.60;;
11018;SDS011;5563;52.296;6.806;2023-05-15T14:56:28;10.63;;;9.52;;
11018;SDS011;5563;52.296;6.806;2023-05-15T14:58:54;10.82;;;9.65;;
11018;SDS011;5563;52.296;6.806;2023-05-15T15:01:28;10.32;;;9.30;;
11018;SDS011;5563;52.296;6.806;2023-05-15T15:04:02;9.50;;;8.60;;
11018;SDS011;5563;52.296;6.806;2023-05-15T15:06:29;10.82;;;9.82;;
11018;SDS011;5563;52.296;6.806;2023-05-15T15:09:04;11.75;;;9.85;;
11018;SDS011;5563;52.296;6.806;2023-05-15T15:11:38;10.95;;;9.75;;
11018;SDS011;5563;52.296;6.806;2023-05-15T15:14:11;10.55;;;9.48;;
11018;SDS011;5563;52.296;6.806;2023-05-15T15:16:44;10.45;;;9.45;;
11018;SDS011;5563;52.296;6.806;2023-05-15T15:19:18;10.70;;;9.63;;
11018;SDS011;5563;52.296;6.806;2023-05-15T15:21:45;12.25;;;10.98;;
11018;SDS011;5563;52.296;6.806;2023-05-15T15:24:19;13.20;;;11.00;;
11018;SDS011;5563;52.296;6.806;2023-05-15T15:26:59;12.15;;;10.88;;
11018;SDS011;5563;52.296;6.806;2023-05-15T15:29:33;11.85;;;10.50;;
11018;SDS011;5563;52.296;6.806;2023-05-15T15:32:06;11.93;;;10.77;;